Time;durP1;ratioP1;P1;durP2;ratioP2;P2;SDS_P1;SDS_P2;PMS_P1;PMS_P2;Temp;Humidity;BMP_temperature;BMP_pressure;BME280_temperature;BME280_humidity;BME280_pressure;Samples;Min_cycle;Max_cycle;Signal;HPM_P1;HPM_P2
2021/12/12 00:00:06;;;;;;;309.92;95.68;;;2.80;99.90;;;;;;5049173;28;20044;-52
2021/12/12 00:02:45;;;;;;;320.48;96.50;;;2.80;99.90;;;;;;5050456;28;20056;-51
2021/12/12 00:05:14;;;;;;;341.67;100.55;;;2.80;99.90;;;;;;5050581;28;20041;-47
2021/12/12 00:07:40;;;;;;;339.80;98.65;;;2.90;99.90;;;;;;5051097;28;20083;-51
2021/12/12 00:10:11;;;;;;;316.58;99.70;;;2.80;99.90;;;;;;5050530;28;20426;-47
2021/12/12 00:12:45;;;;;;;303.48;96.70;;;2.90;99.90;;;;;;5050458;28;20051;-47
2021/12/12 00:15:15;;;;;;;334.17;97.05;;;2.90;99.90;;;;;;5050346;28;20514;-47
2021/12/12 00:17:41;;;;;;;276.58;91.00;;;2.80;99.90;;;;;;5049004;28;20051;-49
2021/12/12 00:20:09;;;;;;;251.75;87.80;;;2.60;99.90;;;;;;5050191;28;20032;-48
2021/12/12 00:22:35;;;;;;;276.52;92.68;;;2.90;99.90;;;;;;5050382;28;20049;-47
2021/12/12 00:25:00;;;;;;;294.17;89.55;;;2.90;99.90;;;;;;5050918;28;20037;-47
2021/12/12 00:27:27;;;;;;;236.30;85.50;;;2.90;99.90;;;;;;5050982;28;20589;-50
2021/12/12 00:29:53;;;;;;;275.95;91.20;;;2.90;99.90;;;;;;5049009;28;20375;-47
2021/12/12 00:32:22;;;;;;;300.95;92.15;;;2.90;99.90;;;;;;5048818;28;20188;-48
2021/12/12 00:34:57;;;;;;;238.57;86.28;;;2.90;99.90;;;;;;5049989;28;20061;-47
2021/12/12 00:37:23;;;;;;;277.08;90.93;;;3.40;99.90;;;;;;5053970;28;20045;-48
2021/12/12 00:39:52;;;;;;;226.40;83.32;;;3.00;99.90;;;;;;5054423;28;20398;-47
2021/12/12 00:42:21;;;;;;;245.90;85.32;;;3.00;99.90;;;;;;5054954;28;20399;-50
2021/12/12 00:44:55;;;;;;;272.77;90.18;;;3.00;99.90;;;;;;5055227;28;20387;-49
2021/12/12 00:47:23;;;;;;;291.85;91.50;;;3.00;99.90;;;;;;5054705;28;20247;-48
2021/12/12 00:49:50;;;;;;;269.75;89.20;;;3.00;99.90;;;;;;5054751;28;20037;-47
2021/12/12 00:52:18;;;;;;;240.07;84.03;;;3.00;99.90;;;;;;5053847;28;20040;-50
2021/12/12 00:54:45;;;;;;;247.10;86.13;;;3.00;99.90;;;;;;5054015;28;20036;-48
2021/12/12 00:57:14;;;;;;;268.77;87.43;;;3.00;99.90;;;;;;5053725;28;20102;-51
2021/12/12 00:59:41;;;;;;;266.75;87.53;;;3.00;99.90;;;;;;5052866;28;20083;-52
2021/12/12 01:02:12;;;;;;;228.40;81.10;;;2.70;99.90;;;;;;5052222;28;20059;-50
2021/12/12 01:04:44;;;;;;;255.30;85.07;;;3.00;99.90;;;;;;5054877;28;20037;-50
2021/12/12 01:07:18;;;;;;;258.08;84.85;;;3.00;99.90;;;;;;5054777;28;20537;-50
2021/12/12 01:09:56;;;;;;;277.45;87.70;;;3.00;99.90;;;;;;5053818;28;20049;-49
2021/12/12 01:12:30;;;;;;;229.82;83.57;;;3.00;99.90;;;;;;5054328;28;20036;-51
2021/12/12 01:15:03;;;;;;;277.25;86.13;;;3.00;99.90;;;;;;5054957;28;20487;-51
2021/12/12 01:17:34;;;;;;;234.15;81.47;;;2.80;99.90;;;;;;5054953;28;20120;-49
2021/12/12 01:20:20;;;;;;;234.18;82.68;;;3.00;99.90;;;;;;5053604;28;20052;-51
2021/12/12 01:22:47;;;;;;;214.43;78.47;;;3.00;99.90;;;;;;5054286;28;20037;-48
2021/12/12 01:25:22;;;;;;;240.68;82.07;;;3.10;99.90;;;;;;5054443;28;20055;-51
2021/12/12 01:27:48;;;;;;;248.55;83.80;;;3.00;99.90;;;;;;5054861;28;20044;-50
2021/12/12 01:30:15;;;;;;;233.85;82.38;;;3.10;99.90;;;;;;5054338;28;20044;-51
2021/12/12 01:32:42;;;;;;;254.40;85.10;;;3.00;99.90;;;;;;5053781;28;20124;-50
2021/12/12 01:35:15;;;;;;;212.75;78.45;;;3.00;99.90;;;;;;5054047;28;20049;-49
2021/12/12 01:37:51;;;;;;;213.95;79.22;;;3.40;99.90;;;;;;5054267;28;20087;-51
2021/12/12 01:40:26;;;;;;;242.50;82.18;;;2.90;99.90;;;;;;5054015;28;20429;-50
2021/12/12 01:43:00;;;;;;;220.02;78.15;;;3.10;99.90;;;;;;5054283;28;20044;-48
2021/12/12 01:45:30;;;;;;;235.38;80.70;;;4.10;99.90;;;;;;5054057;28;20049;-49
2021/12/12 01:48:05;;;;;;;207.98;74.90;;;3.10;99.90;;;;;;5053178;28;20028;-48
2021/12/12 01:50:45;;;;;;;221.98;76.97;;;3.10;99.90;;;;;;5054097;28;20491;-51
2021/12/12 01:53:15;;;;;;;233.40;79.57;;;3.10;99.90;;;;;;5053892;28;20037;-46
2021/12/12 01:55:56;;;;;;;219.63;76.40;;;3.10;99.90;;;;;;5053911;28;20036;-48
2021/12/12 01:58:25;;;;;;;191.15;71.15;;;3.10;99.90;;;;;;5053588;28;20494;-50
2021/12/12 02:01:05;;;;;;;217.05;75.80;;;3.10;99.90;;;;;;5052600;28;20567;-51
2021/12/12 02:03:36;;;;;;;204.75;72.45;;;3.20;99.90;;;;;;5053519;28;20487;-50
2021/12/12 02:06:07;;;;;;;229.98;75.85;;;3.20;99.90;;;;;;5053922;28;20056;-48
2021/12/12 02:08:33;;;;;;;190.20;71.80;;;3.20;99.90;;;;;;5053650;28;20050;-47
2021/12/12 02:11:04;;;;;;;219.65;75.25;;;3.20;99.90;;;;;;5051840;28;20049;-53
2021/12/12 02:13:36;;;;;;;228.80;77.55;;;3.20;99.90;;;;;;5053339;28;20110;-53
2021/12/12 02:16:02;;;;;;;230.00;79.53;;;3.20;99.90;;;;;;5053148;28;20032;-52
2021/12/12 02:18:34;;;;;;;220.15;77.20;;;3.20;99.90;;;;;;5052950;28;20057;-54
2021/12/12 02:21:10;;;;;;;204.52;74.80;;;3.20;99.90;;;;;;5053502;28;20047;-51
2021/12/12 02:24:13;;;;;;;247.55;80.50;;;3.30;99.90;;;;;;5052651;28;20395;-49
2021/12/12 02:37:30;;;;;;;215.00;78.10;;;3.30;99.90;;;;;;5052987;28;20083;-51
2021/12/12 02:39:56;;;;;;;204.93;72.50;;;3.30;99.90;;;;;;5052980;28;20037;-49
2021/12/12 02:42:23;;;;;;;201.73;73.47;;;3.30;99.90;;;;;;5053036;28;20052;-48
2021/12/12 02:44:54;;;;;;;198.88;72.72;;;3.30;99.90;;;;;;5053281;28;20041;-51
2021/12/12 02:47:31;;;;;;;228.23;78.82;;;3.30;99.90;;;;;;5052965;28;20163;-52
2021/12/12 02:50:09;;;;;;;201.13;75.18;;;3.40;99.90;;;;;;5052222;28;20083;-50
2021/12/12 02:52:37;;;;;;;240.05;76.13;;;3.40;99.90;;;;;;5052748;28;20040;-50
2021/12/12 02:55:13;;;;;;;225.25;77.15;;;3.40;99.90;;;;;;5051850;28;20037;-51
2021/12/12 02:57:40;;;;;;;172.18;68.30;;;3.40;99.90;;;;;;5052281;28;20498;-52
2021/12/12 03:00:09;;;;;;;190.10;67.70;;;3.40;99.90;;;;;;5051111;28;20586;-50
2021/12/12 03:02:45;;;;;;;193.70;70.53;;;3.40;99.90;;;;;;5050932;28;20041;-52
2021/12/12 03:05:13;;;;;;;204.60;69.60;;;3.50;99.90;;;;;;5052559;28;20414;-52
2021/12/12 03:07:41;;;;;;;173.32;62.50;;;3.40;99.90;;;;;;5052143;28;20250;-49
2021/12/12 03:10:12;;;;;;;190.88;67.90;;;3.40;99.90;;;;;;5051870;28;20068;-52
2021/12/12 03:12:38;;;;;;;164.27;62.65;;;3.40;99.90;;;;;;5051754;28;20059;-51
2021/12/12 03:15:18;;;;;;;175.80;60.97;;;4.40;99.90;;;;;;5052080;28;20045;-50
2021/12/12 03:17:45;;;;;;;191.52;65.65;;;3.50;99.90;;;;;;5051661;28;20055;-52
2021/12/12 03:20:24;;;;;;;173.95;64.25;;;3.50;99.90;;;;;;5052263;28;20036;-51
2021/12/12 03:22:56;;;;;;;144.10;57.97;;;3.50;99.90;;;;;;5050303;28;20071;-48
2021/12/12 03:25:22;;;;;;;138.48;57.53;;;3.50;99.90;;;;;;5051439;28;20048;-52
2021/12/12 03:27:49;;;;;;;181.98;65.20;;;3.50;99.90;;;;;;5052214;28;20037;-50
2021/12/12 03:30:15;;;;;;;151.77;60.30;;;3.60;99.90;;;;;;5052059;28;20399;-52
2021/12/12 03:32:41;;;;;;;176.32;61.72;;;3.60;99.90;;;;;;5051514;28;20063;-51
2021/12/12 03:35:07;;;;;;;177.15;60.97;;;3.60;99.90;;;;;;5051470;28;20060;-52
2021/12/12 03:37:34;;;;;;;167.77;61.60;;;3.60;99.90;;;;;;5051768;28;20045;-48
2021/12/12 03:40:10;;;;;;;147.98;56.33;;;3.60;99.90;;;;;;5051528;28;20045;-52
2021/12/12 03:42:36;;;;;;;168.48;60.15;;;3.60;99.90;;;;;;5050071;28;20501;-52
2021/12/12 03:45:03;;;;;;;144.40;54.70;;;3.70;99.90;;;;;;5051455;28;20080;-50
2021/12/12 03:47:33;;;;;;;166.63;56.28;;;3.70;99.90;;;;;;5051776;28;20053;-52
2021/12/12 03:50:05;;;;;;;146.20;55.53;;;4.70;99.90;;;;;;5051258;28;20509;-50
2021/12/12 03:52:32;;;;;;;145.90;56.28;;;3.70;99.90;;;;;;5051025;28;20402;-51
2021/12/12 03:55:00;;;;;;;127.35;52.75;;;3.70;99.90;;;;;;5049901;28;20052;-51
2021/12/12 03:57:27;;;;;;;132.98;53.03;;;3.80;99.90;;;;;;5051190;28;20106;-51
2021/12/12 03:59:53;;;;;;;117.03;49.85;;;4.90;99.90;;;;;;5050057;28;20494;-52
2021/12/12 04:02:19;;;;;;;124.05;50.83;;;3.70;99.90;;;;;;5011558;28;20049;-51
2021/12/12 04:04:46;;;;;;;122.60;48.92;;;3.70;99.90;;;;;;5011257;28;20758;-51
2021/12/12 04:07:16;;;;;;;115.18;49.47;;;3.90;99.90;;;;;;5011175;28;20041;-51
2021/12/12 04:09:42;;;;;;;126.28;49.75;;;3.90;99.90;;;;;;5010562;28;20096;-49
2021/12/12 04:12:11;;;;;;;139.20;52.08;;;3.90;99.90;;;;;;5010424;28;20038;-51
2021/12/12 04:14:37;;;;;;;117.72;50.78;;;3.90;99.90;;;;;;5010884;28;20484;-49
2021/12/12 04:17:07;;;;;;;125.90;51.42;;;3.90;99.90;;;;;;5010691;28;20046;-50
2021/12/12 04:19:33;;;;;;;125.07;51.67;;;4.00;99.90;;;;;;5010745;28;20547;-52
2021/12/12 04:22:00;;;;;;;148.80;56.13;;;3.90;99.90;;;;;;5010962;28;20403;-49
2021/12/12 04:24:30;;;;;;;136.48;53.20;;;3.90;99.90;;;;;;5010552;28;20042;-51
2021/12/12 04:26:57;;;;;;;135.85;51.60;;;3.90;99.90;;;;;;5011093;28;20558;-50
2021/12/12 04:29:28;;;;;;;122.75;47.67;;;4.00;99.90;;;;;;5010486;28;20509;-52
2021/12/12 04:31:57;;;;;;;135.40;52.63;;;3.90;99.90;;;;;;5011059;28;20081;-52
2021/12/12 04:34:26;;;;;;;137.85;53.42;;;4.00;99.90;;;;;;5011345;28;20132;-48
2021/12/12 04:36:54;;;;;;;143.02;52.70;;;4.00;99.90;;;;;;5011329;28;20082;-51
2021/12/12 04:39:28;;;;;;;140.60;54.13;;;4.00;99.90;;;;;;5042853;28;20551;-49
2021/12/12 04:42:17;;;;;;;119.85;46.47;;;3.90;99.90;;;;;;5010914;28;20104;-52
2021/12/12 04:44:50;;;;;;;145.98;54.17;;;4.00;99.90;;;;;;5011174;28;20042;-52
2021/12/12 04:50:49;;;;;;;115.22;49.67;;;4.00;99.90;;;;;;5010232;28;20052;-48
2021/12/12 04:53:29;;;;;;;129.20;50.20;;;4.00;99.90;;;;;;5011081;28;20049;-48
2021/12/12 04:56:14;;;;;;;110.47;47.58;;;4.10;99.90;;;;;;5009118;28;20491;-52
2021/12/12 04:58:54;;;;;;;113.07;47.10;;;4.10;99.90;;;;;;5042402;28;20054;-48
2021/12/12 05:01:34;;;;;;;132.65;49.03;;;4.00;99.90;;;;;;5037467;28;20049;-50
2021/12/12 05:04:07;;;;;;;122.28;48.45;;;4.10;99.90;;;;;;5050698;28;20477;-52
2021/12/12 05:06:55;;;;;;;111.00;46.63;;;4.10;99.90;;;;;;5050471;28;20045;-52
2021/12/12 05:09:35;;;;;;;114.80;46.95;;;4.10;99.90;;;;;;5049899;28;20658;-48
2021/12/12 05:12:13;;;;;;;107.68;45.53;;;4.10;99.90;;;;;;5049836;28;20392;-49
2021/12/12 05:14:45;;;;;;;106.05;45.03;;;4.10;99.90;;;;;;5049612;28;20513;-52
2021/12/12 05:17:20;;;;;;;98.55;43.08;;;4.10;99.90;;;;;;5050046;28;20041;-52
2021/12/12 05:19:51;;;;;;;105.75;42.50;;;3.90;99.90;;;;;;5049444;28;20041;-49
2021/12/12 05:22:20;;;;;;;101.00;42.72;;;4.10;99.90;;;;;;5050439;28;20424;-51
2021/12/12 05:24:51;;;;;;;85.53;40.05;;;4.10;99.90;;;;;;5053639;28;20043;-52
2021/12/12 05:27:22;;;;;;;96.90;41.45;;;4.10;99.90;;;;;;5054244;28;20115;-52
2021/12/12 05:29:56;;;;;;;75.57;35.70;;;4.10;99.90;;;;;;5054419;28;20072;-51
2021/12/12 05:32:23;;;;;;;80.72;36.33;;;4.10;99.90;;;;;;5052939;28;20462;-48
2021/12/12 05:34:50;;;;;;;80.75;37.22;;;4.10;99.90;;;;;;5053556;28;20065;-49
2021/12/12 05:37:18;;;;;;;81.47;35.00;;;4.10;99.90;;;;;;5053742;28;20045;-52
2021/12/12 05:39:44;;;;;;;102.15;41.90;;;4.10;99.90;;;;;;5053872;28;20112;-51
2021/12/12 05:42:13;;;;;;;74.03;36.50;;;4.20;99.90;;;;;;5053995;28;20049;-52
2021/12/12 05:44:40;;;;;;;74.22;34.97;;;4.20;99.90;;;;;;5054057;28;20073;-51
2021/12/12 05:47:09;;;;;;;79.28;35.83;;;4.20;99.90;;;;;;5054240;28;20052;-52
2021/12/12 05:49:41;;;;;;;77.40;32.28;;;4.20;99.90;;;;;;5054167;28;20051;-51
2021/12/12 05:52:14;;;;;;;76.32;34.50;;;4.20;99.90;;;;;;5052291;28;20091;-49
2021/12/12 05:54:41;;;;;;;82.05;34.55;;;4.20;99.90;;;;;;5053808;28;20436;-50
2021/12/12 05:57:09;;;;;;;85.35;36.58;;;4.20;99.90;;;;;;5053742;28;20051;-50
2021/12/12 05:59:36;;;;;;;64.95;26.40;;;4.20;99.90;;;;;;5053876;28;20047;-50
2021/12/12 06:02:05;;;;;;;78.72;30.52;;;5.60;99.90;;;;;;5053183;28;20568;-49
2021/12/12 06:04:31;;;;;;;82.85;35.05;;;4.30;99.90;;;;;;5053571;28;20056;-52
2021/12/12 06:06:57;;;;;;;78.28;34.53;;;4.30;99.90;;;;;;5053307;28;20041;-50
2021/12/12 06:09:24;;;;;;;73.90;34.60;;;4.30;99.90;;;;;;5053201;28;20048;-50
2021/12/12 06:11:51;;;;;;;71.75;33.72;;;4.30;99.90;;;;;;5052509;28;20048;-48
2021/12/12 06:14:20;;;;;;;86.07;35.33;;;4.30;99.90;;;;;;5053512;28;20048;-50
2021/12/12 06:16:48;;;;;;;78.38;33.65;;;4.10;99.90;;;;;;5053048;28;20048;-52
2021/12/12 06:19:20;;;;;;;79.20;32.55;;;4.40;99.90;;;;;;5053417;28;20113;-51
2021/12/12 06:21:50;;;;;;;87.18;35.30;;;4.40;99.90;;;;;;5053085;28;20124;-52
2021/12/12 06:24:16;;;;;;;77.57;33.15;;;4.40;99.90;;;;;;5053100;28;20413;-51
2021/12/12 06:26:42;;;;;;;72.03;30.52;;;4.40;99.90;;;;;;5053358;28;20040;-49
2021/12/12 06:29:09;;;;;;;68.20;29.90;;;4.60;99.90;;;;;;5053628;28;20413;-51
2021/12/12 06:31:37;;;;;;;73.57;29.02;;;4.50;99.90;;;;;;5052875;28;20045;-52
2021/12/12 06:34:04;;;;;;;71.68;29.15;;;4.50;99.90;;;;;;5052083;28;20110;-51
2021/12/12 06:36:30;;;;;;;65.22;29.35;;;4.50;99.90;;;;;;5053181;28;20124;-49
2021/12/12 06:38:56;;;;;;;71.97;29.20;;;4.50;99.90;;;;;;5052975;28;20045;-52
2021/12/12 06:41:23;;;;;;;76.20;30.38;;;4.50;99.90;;;;;;5053334;28;20040;-52
2021/12/12 06:43:50;;;;;;;67.63;27.65;;;4.60;99.90;;;;;;5053018;28;20437;-52
2021/12/12 06:46:18;;;;;;;69.13;29.40;;;4.60;99.90;;;;;;5053487;28;20037;-52
2021/12/12 06:48:44;;;;;;;60.17;25.05;;;5.90;99.90;;;;;;5053207;28;20045;-51
2021/12/12 06:51:11;;;;;;;60.67;24.92;;;4.60;99.90;;;;;;5052426;28;20044;-48
2021/12/12 06:53:41;;;;;;;53.65;25.23;;;4.60;99.90;;;;;;5052570;28;20566;-51
2021/12/12 06:56:11;;;;;;;72.10;29.23;;;4.70;99.90;;;;;;5053272;28;20071;-52
2021/12/12 06:58:37;;;;;;;66.97;26.73;;;4.70;99.90;;;;;;5051745;28;20060;-52
2021/12/12 07:01:11;;;;;;;73.80;28.15;;;4.70;99.90;;;;;;5051227;28;20052;-52
2021/12/12 07:03:39;;;;;;;63.08;25.55;;;4.80;99.90;;;;;;5052440;28;20056;-52
2021/12/12 07:06:06;;;;;;;70.03;27.48;;;4.80;99.90;;;;;;5052290;28;20049;-52
2021/12/12 07:08:32;;;;;;;58.90;23.15;;;4.80;99.90;;;;;;5050976;28;20502;-52
2021/12/12 07:10:58;;;;;;;65.00;27.27;;;5.60;99.90;;;;;;5052083;28;20052;-51
2021/12/12 07:13:25;;;;;;;64.68;26.45;;;4.90;99.90;;;;;;5052147;28;20048;-52
2021/12/12 07:15:56;;;;;;;56.88;25.17;;;4.90;99.90;;;;;;5051828;28;20471;-51
2021/12/12 07:18:26;;;;;;;59.40;22.67;;;6.10;99.90;;;;;;5051704;28;20503;-51
2021/12/12 07:20:56;;;;;;;72.47;26.48;;;5.50;99.90;;;;;;5051661;28;20049;-52
2021/12/12 07:23:22;;;;;;;65.95;24.25;;;4.90;99.90;;;;;;5051939;28;20044;-52
2021/12/12 07:25:48;;;;;;;54.80;23.25;;;5.00;99.90;;;;;;5051707;28;20391;-53
2021/12/12 07:28:15;;;;;;;51.92;24.60;;;4.90;99.90;;;;;;5052030;28;20037;-53
2021/12/12 07:30:41;;;;;;;53.85;22.77;;;5.00;99.90;;;;;;5051903;28;20037;-53
2021/12/12 07:33:07;;;;;;;41.47;21.15;;;5.00;99.90;;;;;;5051691;28;20054;-51
2021/12/12 07:35:36;;;;;;;60.50;23.60;;;5.00;99.90;;;;;;5051535;28;20055;-53
2021/12/12 07:38:05;;;;;;;52.55;21.95;;;5.00;99.90;;;;;;5051961;28;20110;-52
2021/12/12 07:40:31;;;;;;;53.65;22.90;;;5.00;99.90;;;;;;5051649;28;20084;-53
2021/12/12 07:42:58;;;;;;;51.55;21.55;;;6.10;99.90;;;;;;5051596;28;20079;-52
2021/12/12 07:45:24;;;;;;;51.72;22.85;;;5.10;99.90;;;;;;5050698;28;20041;-52
2021/12/12 07:47:52;;;;;;;66.85;24.30;;;5.10;99.90;;;;;;5051521;28;20399;-53
2021/12/12 07:50:21;;;;;;;57.72;24.08;;;5.10;99.90;;;;;;5051462;28;20123;-52
2021/12/12 07:52:47;;;;;;;81.97;27.67;;;5.10;99.90;;;;;;5051515;28;20045;-52
2021/12/12 07:55:13;;;;;;;62.47;25.13;;;5.90;99.90;;;;;;5051320;28;20076;-51
2021/12/12 07:57:40;;;;;;;67.53;25.92;;;5.20;99.90;;;;;;5050959;28;20037;-52
2021/12/12 08:00:14;;;;;;;70.47;25.98;;;5.10;99.90;;;;;;5049964;28;20045;-52
2021/12/12 08:02:41;;;;;;;67.30;25.95;;;5.10;99.90;;;;;;5051157;28;20033;-53
2021/12/12 08:05:08;;;;;;;73.88;27.15;;;5.20;99.90;;;;;;5051540;28;20041;-52
2021/12/12 08:07:38;;;;;;;80.78;27.48;;;5.20;99.90;;;;;;5050860;28;20049;-52
2021/12/12 08:10:07;;;;;;;75.32;27.30;;;5.10;99.90;;;;;;5048920;28;20455;-51
2021/12/12 08:12:33;;;;;;;74.93;27.35;;;5.20;99.90;;;;;;5050369;28;20475;-53
2021/12/12 08:15:03;;;;;;;103.20;31.00;;;5.30;99.90;;;;;;5050489;28;20040;-53
2021/12/12 08:17:29;;;;;;;72.95;28.05;;;5.30;99.90;;;;;;5050301;28;20037;-52
2021/12/12 08:19:58;;;;;;;73.03;27.98;;;5.30;99.90;;;;;;5050385;28;20044;-53
2021/12/12 08:22:26;;;;;;;79.97;28.50;;;5.30;99.90;;;;;;5050233;28;20040;-52
2021/12/12 08:24:53;;;;;;;73.18;27.45;;;5.20;99.90;;;;;;5050373;28;20167;-51
2021/12/12 08:27:18;;;;;;;85.43;27.67;;;5.30;99.90;;;;;;5050202;28;20033;-52
2021/12/12 08:29:44;;;;;;;83.05;28.52;;;5.40;99.90;;;;;;5049140;28;20410;-52
2021/12/12 08:32:12;;;;;;;74.35;26.50;;;5.40;99.90;;;;;;5047332;28;20045;-52
2021/12/12 08:34:38;;;;;;;76.13;25.33;;;6.30;99.90;;;;;;5049803;28;20064;-52
2021/12/12 08:37:05;;;;;;;93.95;30.02;;;5.40;99.90;;;;;;5050188;28;20120;-52
2021/12/12 08:39:32;;;;;;;91.88;30.55;;;5.50;99.90;;;;;;5047589;28;20040;-53
2021/12/12 08:42:00;;;;;;;71.30;27.02;;;5.50;99.90;;;;;;5050158;28;20072;-53
2021/12/12 08:44:28;;;;;;;74.00;27.17;;;5.50;99.90;;;;;;5050296;28;20037;-52
2021/12/12 08:46:57;;;;;;;67.85;23.00;;;5.60;99.90;;;;;;5050294;28;20506;-52
2021/12/12 08:49:27;;;;;;;69.43;25.77;;;5.40;99.90;;;;;;5049664;28;20040;-52
2021/12/12 08:52:03;;;;;;;86.47;27.67;;;5.50;99.90;;;;;;5046009;28;20049;-52
2021/12/12 08:54:31;;;;;;;72.68;26.02;;;5.60;99.90;;;;;;5049809;28;20475;-52
2021/12/12 08:57:20;;;;;;;72.35;29.10;;;5.90;99.90;;;;;;5050987;28;20037;-52
2021/12/12 08:59:48;;;;;;;78.25;28.30;;;5.60;99.90;;;;;;5050295;28;20516;-53
2021/12/12 09:02:17;;;;;;;79.55;28.58;;;5.50;99.90;;;;;;5049116;28;20041;-52
2021/12/12 09:04:54;;;;;;;90.68;28.65;;;5.50;99.90;;;;;;5049594;28;20062;-53
2021/12/12 09:07:24;;;;;;;92.88;28.70;;;5.60;99.90;;;;;;5048296;28;20099;-52
2021/12/12 09:10:07;;;;;;;75.10;29.33;;;6.40;99.90;;;;;;5050407;28;20083;-51
2021/12/12 09:12:45;;;;;;;95.32;31.30;;;5.70;99.90;;;;;;5046778;28;20163;-52
2021/12/12 09:15:21;;;;;;;75.32;29.80;;;5.70;99.90;;;;;;5042526;28;20059;-54
2021/12/12 09:18:12;;;;;;;73.45;28.15;;;5.70;99.90;;;;;;5046602;28;20082;-53
2021/12/12 09:20:48;;;;;;;103.95;32.65;;;6.40;99.90;;;;;;5048468;28;20048;-51
2021/12/12 09:23:28;;;;;;;100.53;32.33;;;5.50;99.90;;;;;;5046276;28;20041;-51
2021/12/12 09:25:53;;;;;;;91.72;31.42;;;5.80;99.90;;;;;;5049984;28;20041;-52
2021/12/12 09:28:32;;;;;;;92.85;31.67;;;6.60;99.90;;;;;;5046464;28;20037;-52
2021/12/12 09:31:04;;;;;;;95.65;30.83;;;5.80;99.90;;;;;;5045462;28;20398;-53
2021/12/12 09:33:45;;;;;;;98.82;33.42;;;5.80;99.90;;;;;;5045952;28;20068;-53
2021/12/12 09:36:19;;;;;;;88.28;31.23;;;6.40;99.90;;;;;;5047444;28;20060;-53
2021/12/12 09:38:57;;;;;;;101.28;33.55;;;5.90;99.90;;;;;;5047167;28;20041;-52
2021/12/12 09:41:51;;;;;;;106.80;33.80;;;6.70;99.90;;;;;;5047111;28;20037;-52
2021/12/12 09:44:54;;;;;;;90.75;31.60;;;5.90;99.90;;;;;;5024913;28;20044;-53
2021/12/12 09:47:58;;;;;;;126.88;35.40;;;6.00;99.90;;;;;;5049402;28;20036;-53
2021/12/12 09:51:16;;;;;;;102.93;30.58;;;6.00;99.90;;;;;;5049866;28;20045;-52
2021/12/12 09:53:52;;;;;;;113.68;32.88;;;6.10;99.90;;;;;;5051227;28;20064;-53
2021/12/12 09:56:49;;;;;;;111.55;34.67;;;5.80;99.90;;;;;;5051355;28;20387;-53
2021/12/12 09:59:23;;;;;;;117.63;33.17;;;6.10;99.90;;;;;;5049538;28;20049;-53
2021/12/12 10:02:22;;;;;;;130.40;34.55;;;6.20;99.90;;;;;;5053204;28;20586;-54
2021/12/12 10:05:24;;;;;;;111.35;30.95;;;6.10;99.90;;;;;;5051510;28;20048;-53
2021/12/12 10:08:11;;;;;;;133.18;37.83;;;6.30;99.90;;;;;;5051805;28;20076;-51
2021/12/12 10:10:49;;;;;;;144.40;37.90;;;6.20;99.90;;;;;;5050652;28;20151;-52
2021/12/12 10:13:25;;;;;;;112.00;34.05;;;6.40;99.90;;;;;;5049861;28;20044;-52
2021/12/12 10:15:56;;;;;;;140.18;37.35;;;7.40;99.90;;;;;;5051809;28;20098;-53
2021/12/12 10:18:47;;;;;;;144.93;37.95;;;7.00;99.90;;;;;;5047856;28;20076;-53
2021/12/12 10:21:24;;;;;;;149.20;38.83;;;6.60;99.90;;;;;;5028225;28;20064;-49
2021/12/12 10:24:06;;;;;;;118.72;33.65;;;7.50;99.90;;;;;;5033085;28;20124;-52
2021/12/12 10:26:37;;;;;;;131.18;34.33;;;7.50;99.90;;;;;;5051498;28;20468;-53
2021/12/12 10:29:14;;;;;;;125.18;34.30;;;6.70;99.90;;;;;;5052071;28;20084;-53
2021/12/12 10:31:50;;;;;;;117.72;34.05;;;6.80;99.90;;;;;;5049634;28;20037;-56
2021/12/12 10:34:25;;;;;;;100.05;32.47;;;7.40;99.90;;;;;;4361826;28;10000811;-56
2021/12/12 10:37:03;;;;;;;95.15;30.35;;;6.90;99.90;;;;;;5068933;28;20051;-56
2021/12/12 10:39:42;;;;;;;126.63;34.50;;;7.10;99.90;;;;;;5069155;28;20141;-56
2021/12/12 10:42:23;;;;;;;99.55;30.05;;;7.20;99.90;;;;;;5067868;28;20049;-57
2021/12/12 10:44:58;;;;;;;85.72;30.48;;;7.60;99.90;;;;;;5069080;28;20055;-56
2021/12/12 10:47:35;;;;;;;107.60;32.83;;;7.30;99.90;;;;;;5068683;28;20041;-56
2021/12/12 10:50:13;;;;;;;112.50;34.28;;;7.40;99.90;;;;;;5051188;28;20044;-56
2021/12/12 10:52:44;;;;;;;85.03;28.25;;;7.40;99.90;;;;;;5048122;28;20036;-56
2021/12/12 10:55:31;;;;;;;111.38;34.42;;;7.50;99.90;;;;;;5048626;28;20041;-56
2021/12/12 10:58:24;;;;;;;104.50;32.25;;;7.50;99.90;;;;;;5047949;28;20380;-56
2021/12/12 11:00:59;;;;;;;93.78;30.65;;;7.60;99.90;;;;;;5045308;28;20033;-56
2021/12/12 11:03:40;;;;;;;97.00;31.52;;;7.50;99.90;;;;;;5048419;28;20037;-56
2021/12/12 11:06:21;;;;;;;94.72;30.05;;;7.90;99.90;;;;;;5048698;28;20064;-55
2021/12/12 11:08:57;;;;;;;84.68;28.30;;;7.60;99.90;;;;;;5048351;28;20490;-56
2021/12/12 11:11:33;;;;;;;102.57;32.72;;;8.20;99.90;;;;;;5048402;28;20112;-56
2021/12/12 11:14:14;;;;;;;97.80;32.40;;;7.70;99.90;;;;;;5046979;28;20390;-56
2021/12/12 11:16:55;;;;;;;84.60;27.88;;;7.80;99.90;;;;;;5046706;28;20049;-56
2021/12/12 11:19:42;;;;;;;87.47;28.10;;;7.80;99.90;;;;;;5046928;28;20052;-56
2021/12/12 11:22:15;;;;;;;87.70;28.55;;;8.20;99.90;;;;;;5047543;28;20048;-56
2021/12/12 11:24:49;;;;;;;84.07;28.42;;;8.10;99.90;;;;;;5047743;28;20040;-56
2021/12/12 11:27:37;;;;;;;91.93;29.00;;;7.90;99.90;;;;;;5045999;28;20035;-56
2021/12/12 11:30:11;;;;;;;99.85;31.55;;;7.90;99.90;;;;;;5045434;28;20045;-56
2021/12/12 11:32:38;;;;;;;78.05;29.30;;;8.00;99.90;;;;;;5045873;28;20414;-56
2021/12/12 11:35:10;;;;;;;73.68;27.48;;;8.70;99.90;;;;;;5047743;28;20053;-55
2021/12/12 11:38:17;;;;;;;92.00;30.23;;;7.80;99.90;;;;;;5048351;28;20048;-56
2021/12/12 11:41:11;;;;;;;74.55;26.67;;;8.10;99.90;;;;;;5014276;28;20053;-56
2021/12/12 11:43:57;;;;;;;86.28;28.98;;;8.20;99.90;;;;;;5025365;28;20056;-56
2021/12/12 11:46:25;;;;;;;65.75;25.88;;;8.30;99.90;;;;;;5046392;28;20037;-54
2021/12/12 11:48:55;;;;;;;80.18;27.38;;;8.30;99.90;;;;;;5047610;28;20033;-56
2021/12/12 11:51:33;;;;;;;74.28;26.58;;;8.30;99.90;;;;;;5046364;28;20083;-55
2021/12/12 11:54:20;;;;;;;70.97;25.20;;;8.30;99.90;;;;;;5045951;28;20041;-57
2021/12/12 11:56:50;;;;;;;84.88;31.50;;;8.30;99.90;;;;;;5046586;28;20394;-55
2021/12/12 11:59:30;;;;;;;79.80;31.55;;;8.70;99.90;;;;;;5045575;28;20044;-56
2021/12/12 12:02:33;;;;;;;91.88;30.77;;;8.20;99.90;;;;;;5045986;28;20055;-56
2021/12/12 12:05:30;;;;;;;66.43;24.98;;;8.30;99.90;;;;;;5046626;28;20059;-58
2021/12/12 12:08:33;;;;;;;79.90;26.50;;;8.30;99.90;;;;;;5046831;28;20608;-58
2021/12/12 12:11:20;;;;;;;72.05;25.77;;;8.30;99.90;;;;;;5046875;28;20556;-56
2021/12/12 12:14:09;;;;;;;66.57;22.15;;;8.30;99.90;;;;;;5047075;28;20071;-56
2021/12/12 12:16:54;;;;;;;76.40;23.48;;;8.40;99.90;;;;;;5047231;28;20398;-56
2021/12/12 12:19:41;;;;;;;83.80;27.05;;;8.30;99.90;;;;;;5047443;28;20060;-56
2021/12/12 12:22:10;;;;;;;87.82;26.50;;;8.50;99.90;;;;;;5047840;28;20053;-56
2021/12/12 12:24:55;;;;;;;78.68;26.17;;;8.90;99.90;;;;;;5047504;28;20068;-55
2021/12/12 12:27:34;;;;;;;68.32;24.50;;;8.50;99.90;;;;;;5047232;28;20041;-56
2021/12/12 12:30:30;;;;;;;88.35;24.25;;;8.60;99.90;;;;;;5047317;28;20053;-56
2021/12/12 12:33:24;;;;;;;87.85;27.35;;;8.70;99.90;;;;;;5045381;28;20048;-56
2021/12/12 12:36:27;;;;;;;71.07;23.10;;;8.70;99.90;;;;;;5044709;28;20067;-56
2021/12/12 12:39:24;;;;;;;74.93;25.05;;;8.70;99.90;;;;;;5046271;28;20048;-56
2021/12/12 12:42:27;;;;;;;88.90;26.50;;;8.70;99.90;;;;;;5043540;28;20483;-56
2021/12/12 12:45:38;;;;;;;67.35;22.75;;;8.80;99.90;;;;;;5043689;28;20517;-56
2021/12/12 12:48:13;;;;;;;75.47;22.40;;;8.80;99.90;;;;;;5044652;28;20215;-56
2021/12/12 12:50:54;;;;;;;67.05;22.60;;;9.20;99.90;;;;;;5046355;28;20571;-56
2021/12/12 12:53:41;;;;;;;87.20;26.58;;;8.80;99.90;;;;;;5044933;28;20045;-56
2021/12/12 12:56:15;;;;;;;69.15;23.08;;;8.90;99.90;;;;;;5046105;28;20047;-55
2021/12/12 12:59:06;;;;;;;94.05;27.13;;;8.80;99.90;;;;;;5046023;28;20410;-56
2021/12/12 13:02:12;;;;;;;76.15;24.98;;;8.90;99.90;;;;;;5044076;28;20407;-57
2021/12/12 13:04:56;;;;;;;77.45;25.50;;;8.90;99.90;;;;;;5047043;28;20049;-57
2021/12/12 13:08:06;;;;;;;92.88;27.38;;;8.90;99.90;;;;;;5046844;28;20049;-57
2021/12/12 13:10:34;;;;;;;71.70;24.70;;;8.90;99.90;;;;;;5046561;28;20449;-57
2021/12/12 13:13:17;;;;;;;85.13;25.92;;;8.90;99.90;;;;;;5046248;28;20036;-57
2021/12/12 13:15:42;;;;;;;88.53;27.45;;;8.90;99.90;;;;;;5046712;28;20063;-57
2021/12/12 13:18:52;;;;;;;83.57;27.70;;;8.90;99.90;;;;;;5046685;28;20044;-57